Time;durP1;ratioP1;P1;durP2;ratioP2;P2;SDS_P1;SDS_P2;PMS_P1;PMS_P2;Temp;Humidity;BMP_temperature;BMP_pressure;BME280_temperature;BME280_humidity;BME280_pressure;Samples;Min_cycle;Max_cycle;Signal;HPM_P1;HPM_P2
2021/05/12 00:01:43;;;;;;;2.00;1.40;;;13.50;59.10;;;;;;5008946;28;20064;-77
2021/05/12 00:04:09;;;;;;;2.58;1.50;;;13.50;59.10;;;;;;5008621;28;20555;-77
2021/05/12 00:06:35;;;;;;;2.95;1.70;;;13.40;59.00;;;;;;5009067;28;20191;-78
2021/05/12 00:09:01;;;;;;;1.60;1.48;;;13.40;59.00;;;;;;5026296;28;20037;-78
2021/05/12 00:11:27;;;;;;;2.10;1.48;;;13.40;59.10;;;;;;5008997;28;20036;-77
2021/05/12 00:13:53;;;;;;;2.47;1.58;;;13.30;58.90;;;;;;5011957;28;20033;-77
2021/05/12 00:16:19;;;;;;;2.50;1.63;;;13.30;59.00;;;;;;5012651;28;20028;-77
2021/05/12 00:18:47;;;;;;;2.15;1.30;;;13.30;59.00;;;;;;5028596;28;20079;-77
2021/05/12 00:21:24;;;;;;;1.88;1.50;;;13.20;58.90;;;;;;5028205;28;20078;-77
2021/05/12 00:23:59;;;;;;;1.38;1.27;;;13.20;58.90;;;;;;4991908;28;20408;-77
2021/05/12 00:26:41;;;;;;;1.98;1.50;;;13.20;58.90;;;;;;5008545;28;20365;-77
2021/05/12 00:29:12;;;;;;;2.35;1.35;;;13.10;58.80;;;;;;5001970;28;20036;-77
2021/05/12 00:31:39;;;;;;;1.40;1.30;;;13.00;58.60;;;;;;5028744;28;20021;-77
2021/05/12 00:34:07;;;;;;;1.60;1.30;;;13.00;58.70;;;;;;5012021;28;20025;-77
2021/05/12 00:36:34;;;;;;;2.45;1.67;;;13.00;58.70;;;;;;5028297;28;20033;-77
2021/05/12 00:39:03;;;;;;;3.28;1.50;;;12.90;58.60;;;;;;5008818;28;20049;-77
2021/05/12 00:41:29;;;;;;;1.50;1.40;;;12.90;58.70;;;;;;5008502;28;20030;-76
2021/05/12 00:43:55;;;;;;;2.53;1.65;;;12.80;58.50;;;;;;5008293;28;20056;-77
2021/05/12 00:46:21;;;;;;;2.10;1.30;;;12.80;58.60;;;;;;5008996;28;20100;-76
2021/05/12 00:48:48;;;;;;;1.30;1.20;;;12.70;58.50;;;;;;5032782;28;20148;-77
2021/05/12 00:51:14;;;;;;;1.70;1.58;;;12.70;58.50;;;;;;5012241;28;20115;-77
2021/05/12 00:53:40;;;;;;;1.30;1.20;;;12.60;58.40;;;;;;5032057;28;20033;-78
2021/05/12 00:56:07;;;;;;;1.27;1.17;;;12.60;58.40;;;;;;5031988;28;20041;-77
2021/05/12 00:58:33;;;;;;;1.65;1.55;;;12.50;58.30;;;;;;5015416;28;20037;-76
2021/05/12 01:00:59;;;;;;;2.50;1.50;;;12.40;58.20;;;;;;5015610;28;20029;-75
2021/05/12 01:03:26;;;;;;;1.27;1.17;;;12.40;58.80;;;;;;5031976;28;20033;-76
2021/05/12 01:05:52;;;;;;;3.28;1.75;;;12.40;58.30;;;;;;5032209;28;20416;-76
2021/05/12 01:08:22;;;;;;;1.73;1.30;;;12.30;58.10;;;;;;5015999;28;20120;-76
2021/05/12 01:10:48;;;;;;;1.85;1.25;;;12.20;58.00;;;;;;5016019;28;20025;-76
2021/05/12 01:13:14;;;;;;;1.83;1.58;;;12.30;58.20;;;;;;5032736;28;20491;-75
2021/05/12 01:15:42;;;;;;;2.13;1.60;;;12.10;57.90;;;;;;5048941;28;20052;-75
2021/05/12 01:18:13;;;;;;;1.60;1.40;;;12.10;58.00;;;;;;5049357;28;20044;-76
2021/05/12 01:20:59;;;;;;;1.40;1.30;;;12.10;58.10;;;;;;5049410;28;20403;-75
2021/05/12 01:23:27;;;;;;;1.83;1.38;;;12.00;58.00;;;;;;5031719;28;20032;-75
2021/05/12 01:25:55;;;;;;;1.45;1.27;;;12.00;58.00;;;;;;5031432;28;20436;-75
2021/05/12 01:28:23;;;;;;;1.30;1.20;;;11.90;57.90;;;;;;5049813;28;20459;-76
2021/05/12 01:31:09;;;;;;;1.83;1.60;;;11.90;58.00;;;;;;5047724;28;20033;-75
2021/05/12 01:33:39;;;;;;;1.27;1.20;;;11.90;58.10;;;;;;5040114;28;20255;-75
2021/05/12 01:36:06;;;;;;;1.60;1.27;;;11.90;58.10;;;;;;5012683;28;20025;-76
2021/05/12 01:38:33;;;;;;;1.88;1.40;;;11.80;58.00;;;;;;5017376;28;20079;-76
2021/05/12 01:41:01;;;;;;;2.30;1.55;;;11.80;58.00;;;;;;5032847;28;20032;-75
2021/05/12 01:43:31;;;;;;;2.78;1.50;;;11.80;58.00;;;;;;5016063;28;20032;-75
2021/05/12 01:45:58;;;;;;;1.77;1.30;;;11.80;58.10;;;;;;5029134;28;20045;-75
2021/05/12 01:48:25;;;;;;;1.67;1.50;;;11.80;58.10;;;;;;5053272;28;20033;-75
2021/05/12 01:50:51;;;;;;;1.58;1.33;;;11.80;58.10;;;;;;5035050;28;20110;-77
2021/05/12 01:53:17;;;;;;;1.40;1.30;;;11.80;58.10;;;;;;5035976;28;20024;-78
2021/05/12 01:55:46;;;;;;;1.80;1.20;;;11.80;58.20;;;;;;5052327;28;20032;-77
2021/05/12 01:58:13;;;;;;;2.88;1.30;;;11.80;58.20;;;;;;5035750;28;20450;-78
2021/05/12 02:00:42;;;;;;;1.52;1.27;;;11.80;58.10;;;;;;5053425;28;20476;-77
2021/05/12 02:03:08;;;;;;;1.08;1.08;;;11.70;58.00;;;;;;5052624;28;20037;-77
2021/05/12 02:05:35;;;;;;;1.20;1.10;;;11.70;58.00;;;;;;5052354;28;20036;-76
2021/05/12 02:08:04;;;;;;;2.10;1.33;;;11.70;58.00;;;;;;5053073;28;20067;-77
2021/05/12 02:10:31;;;;;;;3.22;1.30;;;11.80;58.20;;;;;;5053025;28;20029;-77
2021/05/12 02:12:58;;;;;;;1.10;1.10;;;11.80;58.20;;;;;;5053276;28;20029;-76
2021/05/12 02:15:24;;;;;;;1.80;1.25;;;11.80;58.20;;;;;;5052810;28;20037;-78
2021/05/12 02:17:51;;;;;;;1.48;1.10;;;11.80;58.20;;;;;;5018533;28;20468;-78
2021/05/12 02:20:23;;;;;;;2.78;1.50;;;11.70;58.00;;;;;;5035262;28;20038;-78
2021/05/12 02:22:49;;;;;;;1.10;1.10;;;11.70;58.10;;;;;;5052643;28;20116;-76
2021/05/12 02:25:15;;;;;;;1.60;1.27;;;11.80;58.30;;;;;;5035141;28;20029;-77
2021/05/12 02:27:42;;;;;;;1.40;1.20;;;11.70;58.10;;;;;;5034889;28;20043;-77
2021/05/12 02:30:11;;;;;;;1.50;1.33;;;11.70;58.10;;;;;;5052378;28;20419;-78
2021/05/12 02:32:38;;;;;;;1.30;1.20;;;11.80;58.30;;;;;;5034898;28;20507;-78
2021/05/12 02:35:07;;;;;;;1.30;1.20;;;11.70;58.10;;;;;;5034832;28;20025;-77
2021/05/12 02:37:33;;;;;;;1.17;1.10;;;11.80;58.30;;;;;;5034926;28;20067;-78
2021/05/12 02:39:59;;;;;;;1.52;1.40;;;11.80;58.30;;;;;;5034817;28;20120;-77
2021/05/12 02:42:26;;;;;;;1.65;1.20;;;11.80;58.30;;;;;;5034647;28;20201;-76
2021/05/12 02:44:52;;;;;;;2.70;1.65;;;11.80;58.30;;;;;;5034723;28;20037;-77
2021/05/12 02:47:18;;;;;;;1.52;1.10;;;11.80;58.30;;;;;;5052384;28;20106;-77
2021/05/12 02:49:44;;;;;;;1.60;1.38;;;11.80;58.30;;;;;;5052048;28;20028;-77
2021/05/12 02:52:10;;;;;;;1.65;1.55;;;11.80;58.30;;;;;;5052396;28;20040;-76
2021/05/12 02:54:36;;;;;;;1.00;1.00;;;11.80;58.30;;;;;;5052457;28;20565;-77
2021/05/12 02:57:03;;;;;;;1.60;1.27;;;11.70;58.10;;;;;;5051972;28;20033;-76
2021/05/12 02:59:30;;;;;;;3.15;1.17;;;11.80;58.30;;;;;;5018173;28;20573;-74
2021/05/12 03:01:56;;;;;;;1.55;1.40;;;11.70;58.70;;;;;;5052190;28;20029;-77
2021/05/12 03:04:22;;;;;;;1.92;1.20;;;11.70;58.10;;;;;;5052111;28;20400;-77
2021/05/12 03:06:48;;;;;;;2.65;1.70;;;11.80;58.30;;;;;;5034220;28;20192;-77
2021/05/12 03:09:14;;;;;;;1.27;1.17;;;11.80;58.90;;;;;;5051561;28;20036;-77
2021/05/12 03:11:40;;;;;;;1.42;1.33;;;11.70;58.10;;;;;;5051801;28;20052;-77
2021/05/12 03:14:08;;;;;;;1.48;1.30;;;11.70;58.10;;;;;;5018146;28;20065;-77
2021/05/12 03:16:34;;;;;;;2.47;1.30;;;11.80;58.30;;;;;;5051798;28;20369;-77
2021/05/12 03:19:01;;;;;;;1.15;1.00;;;11.80;58.30;;;;;;5052052;28;20049;-78
2021/05/12 03:21:29;;;;;;;1.33;1.23;;;11.70;58.10;;;;;;5034000;28;20032;-78
2021/05/12 03:23:55;;;;;;;1.38;1.27;;;11.70;58.10;;;;;;5033509;28;20037;-75
2021/05/12 03:26:21;;;;;;;2.08;1.30;;;11.80;58.40;;;;;;5051126;28;20067;-77
2021/05/12 03:28:47;;;;;;;2.53;1.40;;;11.70;58.20;;;;;;5052153;28;20033;-78
2021/05/12 03:31:14;;;;;;;1.20;1.15;;;11.70;58.20;;;;;;5051850;28;20484;-78
2021/05/12 03:33:41;;;;;;;1.45;1.30;;;11.70;58.20;;;;;;5051505;28;20056;-78
2021/05/12 03:36:08;;;;;;;1.98;1.02;;;11.70;58.20;;;;;;5033866;28;20103;-78
2021/05/12 03:38:34;;;;;;;1.30;1.20;;;11.70;58.20;;;;;;5051267;28;20041;-78
2021/05/12 03:41:00;;;;;;;1.48;1.38;;;11.70;58.20;;;;;;5051831;28;20400;-77
2021/05/12 03:43:27;;;;;;;1.52;1.10;;;11.70;58.20;;;;;;5051163;28;20037;-77
2021/05/12 03:45:53;;;;;;;1.33;1.20;;;11.70;58.20;;;;;;5050927;28;20029;-76
2021/05/12 03:48:19;;;;;;;1.33;1.23;;;11.70;58.20;;;;;;5051431;28;20059;-77
2021/05/12 03:50:45;;;;;;;1.63;1.30;;;11.70;58.20;;;;;;5017391;28;20480;-76
2021/05/12 03:53:11;;;;;;;2.25;1.40;;;11.70;58.20;;;;;;5033233;28;20132;-77
2021/05/12 03:55:38;;;;;;;2.17;1.55;;;11.70;58.20;;;;;;5033607;28;20108;-77
2021/05/12 03:58:04;;;;;;;1.88;1.30;;;11.70;58.20;;;;;;5051251;28;20127;-77
2021/05/12 04:00:31;;;;;;;1.65;1.40;;;11.70;58.20;;;;;;5017184;28;20561;-77
2021/05/12 04:02:58;;;;;;;2.15;1.42;;;11.70;58.20;;;;;;5033311;28;20029;-77
2021/05/12 04:05:24;;;;;;;2.13;1.48;;;11.70;58.20;;;;;;5033420;28;20025;-77
2021/05/12 04:07:50;;;;;;;2.40;1.30;;;11.70;58.20;;;;;;5050648;28;20033;-77
2021/05/12 04:10:17;;;;;;;2.97;1.92;;;11.70;58.20;;;;;;5051171;28;20150;-76
2021/05/12 04:12:43;;;;;;;2.40;1.67;;;11.70;58.20;;;;;;5033603;28;20033;-77
2021/05/12 04:15:10;;;;;;;1.92;1.50;;;11.70;58.20;;;;;;5051194;28;20037;-77
2021/05/12 04:17:37;;;;;;;2.70;1.70;;;11.60;58.00;;;;;;5051242;28;20051;-77
2021/05/12 04:20:10;;;;;;;3.35;1.58;;;11.60;58.00;;;;;;5050759;28;20037;-77
2021/05/12 04:22:37;;;;;;;1.60;1.50;;;11.70;58.30;;;;;;5032944;28;20472;-77
2021/05/12 04:25:05;;;;;;;1.55;1.45;;;11.60;58.10;;;;;;5032882;28;20029;-76
2021/05/12 04:27:31;;;;;;;4.63;1.80;;;11.70;58.30;;;;;;5053016;28;20505;-76
2021/05/12 04:29:58;;;;;;;2.08;1.50;;;11.70;58.30;;;;;;5037014;28;20037;-76
2021/05/12 04:32:24;;;;;;;2.15;1.40;;;11.60;58.10;;;;;;5037267;28;20439;-77
2021/05/12 04:34:50;;;;;;;1.85;1.33;;;11.70;58.30;;;;;;5037219;28;20113;-77
2021/05/12 04:37:16;;;;;;;3.60;1.95;;;11.70;58.30;;;;;;5054691;28;20056;-77
2021/05/12 04:39:43;;;;;;;5.22;2.00;;;11.70;58.30;;;;;;5037226;28;20028;-76
2021/05/12 04:42:09;;;;;;;3.00;1.85;;;11.70;58.40;;;;;;5063177;28;20021;-77
2021/05/12 04:44:35;;;;;;;2.22;1.58;;;11.70;58.30;;;;;;5065253;28;20021;-77
2021/05/12 04:47:01;;;;;;;2.33;1.73;;;11.70;58.30;;;;;;5064389;28;20063;-76
2021/05/12 04:49:27;;;;;;;4.00;1.73;;;11.70;58.30;;;;;;5058096;28;21010;-76
2021/05/12 04:51:53;;;;;;;4.05;1.63;;;11.70;58.30;;;;;;5055098;28;20025;-77
2021/05/12 04:54:19;;;;;;;1.38;1.15;;;11.70;58.30;;;;;;5060067;28;20360;-76
2021/05/12 04:56:45;;;;;;;1.70;1.40;;;11.80;58.50;;;;;;5059932;28;20059;-76
2021/05/12 04:59:11;;;;;;;2.33;1.80;;;11.80;58.50;;;;;;5044528;28;20537;-77
2021/05/12 05:01:37;;;;;;;5.07;2.00;;;11.80;58.50;;;;;;5042749;28;20371;-75
2021/05/12 05:04:04;;;;;;;2.95;1.42;;;11.80;58.40;;;;;;5057284;28;20391;-76
2021/05/12 05:06:33;;;;;;;2.33;1.50;;;11.80;58.50;;;;;;5049250;28;20035;-76
2021/05/12 05:08:59;;;;;;;4.97;2.35;;;11.90;58.50;;;;;;5046882;28;20064;-76
2021/05/12 05:11:25;;;;;;;5.97;2.00;;;11.90;58.50;;;;;;5029346;28;20124;-77
2021/05/12 05:13:51;;;;;;;2.25;1.50;;;11.90;58.50;;;;;;5039940;28;20405;-77
2021/05/12 05:16:17;;;;;;;4.03;1.80;;;11.90;58.50;;;;;;5056933;28;20094;-78
2021/05/12 05:18:45;;;;;;;6.25;1.80;;;11.90;58.50;;;;;;5043839;28;20062;-77
2021/05/12 05:21:11;;;;;;;3.40;1.92;;;11.90;58.40;;;;;;5042779;28;20033;-77
2021/05/12 05:23:38;;;;;;;4.50;2.03;;;11.90;58.40;;;;;;5034720;28;20557;-77
2021/05/12 05:26:04;;;;;;;3.97;1.63;;;12.00;58.50;;;;;;5043150;28;20030;-78
2021/05/12 05:28:33;;;;;;;6.22;1.80;;;12.00;58.50;;;;;;5039086;28;20041;-81
2021/05/12 05:30:59;;;;;;;3.20;1.67;;;12.00;59.10;;;;;;5042312;28;20173;-78
2021/05/12 05:33:43;;;;;;;4.50;2.25;;;12.00;58.50;;;;;;5030317;28;20029;-78
2021/05/12 05:36:27;;;;;;;4.85;2.33;;;12.00;58.60;;;;;;5028531;28;20030;-80
2021/05/12 05:39:12;;;;;;;5.07;2.28;;;12.10;59.00;;;;;;5038114;28;20029;-79
2021/05/12 05:41:56;;;;;;;7.57;2.25;;;12.10;59.10;;;;;;5037398;28;20120;-82
2021/05/12 05:44:41;;;;;;;4.40;1.98;;;12.20;59.30;;;;;;5029554;28;20025;-78
2021/05/12 05:47:26;;;;;;;7.25;2.22;;;12.20;59.40;;;;;;5028717;28;20120;-79
2021/05/12 05:50:11;;;;;;;5.47;2.03;;;12.30;59.60;;;;;;5022384;28;20684;-77
2021/05/12 05:52:56;;;;;;;6.50;2.03;;;12.30;59.60;;;;;;5035699;28;20029;-77
2021/05/12 05:55:41;;;;;;;5.13;2.20;;;12.40;59.80;;;;;;5049528;28;20352;-77
2021/05/12 05:58:25;;;;;;;5.15;2.30;;;12.40;59.80;;;;;;5058797;28;20494;-78
2021/05/12 06:01:10;;;;;;;5.57;1.75;;;12.40;59.80;;;;;;5038578;28;20033;-78
2021/05/12 06:03:36;;;;;;;5.10;2.03;;;12.50;59.90;;;;;;5047893;28;20494;-78
2021/05/12 06:06:20;;;;;;;7.18;2.38;;;12.60;60.10;;;;;;5047151;28;20404;-78
2021/05/12 06:09:05;;;;;;;4.47;2.33;;;12.60;60.00;;;;;;5034591;28;20420;-76
2021/05/12 06:11:49;;;;;;;5.38;1.95;;;12.70;60.10;;;;;;5029164;28;20029;-78
2021/05/12 06:14:34;;;;;;;7.05;2.25;;;12.80;60.30;;;;;;5034059;28;20052;-76
2021/05/12 06:17:18;;;;;;;5.60;1.98;;;12.90;60.50;;;;;;5037670;28;20047;-76
2021/05/12 06:20:04;;;;;;;5.35;2.42;;;13.00;60.80;;;;;;5028790;28;20033;-77
2021/05/12 06:22:48;;;;;;;6.55;2.30;;;13.20;61.20;;;;;;5035174;28;20047;-77
2021/05/12 06:25:33;;;;;;;6.10;2.42;;;13.30;61.40;;;;;;5033277;28;20031;-77
2021/05/12 06:28:19;;;;;;;5.80;1.67;;;13.60;61.70;;;;;;5039209;28;20041;-77
2021/05/12 06:31:03;;;;;;;3.00;1.88;;;13.70;61.70;;;;;;5026969;28;20061;-77
2021/05/12 06:33:48;;;;;;;;;;;13.90;62.30;;;;;;5026625;28;20038;-77
2021/05/12 06:36:32;;;;;;;7.68;2.33;;;14.10;61.70;;;;;;5028403;28;19955;-77
2021/05/12 06:39:17;;;;;;;3.75;2.25;;;14.20;61.60;;;;;;5013066;28;20472;-77
2021/05/12 06:41:43;;;;;;;10.23;2.83;;;14.40;62.40;;;;;;5027214;28;20030;-77
2021/05/12 06:44:09;;;;;;;4.25;2.00;;;14.50;61.90;;;;;;5044810;28;20040;-78
2021/05/12 06:46:36;;;;;;;4.50;2.17;;;14.60;62.00;;;;;;5047347;28;20526;-76
2021/05/12 06:49:03;;;;;;;3.85;2.13;;;14.80;62.40;;;;;;5048172;28;20124;-77
2021/05/12 06:51:29;;;;;;;6.85;2.20;;;14.80;62.20;;;;;;5047800;28;20025;-77
2021/05/12 06:53:55;;;;;;;7.57;2.53;;;15.00;62.60;;;;;;5030033;28;20032;-76
2021/05/12 06:56:21;;;;;;;6.78;2.80;;;15.10;62.80;;;;;;5047489;28;20536;-76
2021/05/12 06:58:46;;;;;;;5.15;2.17;;;15.30;63.00;;;;;;5009795;28;20059;-78
2021/05/12 07:01:13;;;;;;;5.22;2.15;;;15.50;63.50;;;;;;5010360;28;20048;-78
2021/05/12 07:03:39;;;;;;;5.13;2.45;;;15.70;63.80;;;;;;5029533;28;20025;-78
2021/05/12 07:06:05;;;;;;;8.80;2.95;;;15.90;63.90;;;;;;5047792;28;20116;-77
2021/05/12 07:08:33;;;;;;;8.85;2.80;;;16.10;63.90;;;;;;5029875;28;20032;-77
2021/05/12 07:10:59;;;;;;;6.22;2.47;;;16.30;64.00;;;;;;5048229;28;20033;-77
2021/05/12 07:13:26;;;;;;;8.43;2.00;;;16.50;64.20;;;;;;5030504;28;20502;-77
2021/05/12 07:15:52;;;;;;;4.57;2.20;;;16.80;64.50;;;;;;5030450;28;20032;-77
2021/05/12 07:18:18;;;;;;;2.95;1.83;;;17.00;64.40;;;;;;5048236;28;20035;-78
2021/05/12 07:20:45;;;;;;;3.42;1.92;;;17.10;64.40;;;;;;5029520;28;20426;-77
2021/05/12 07:23:19;;;;;;;4.82;1.88;;;17.40;64.80;;;;;;5046831;28;20024;-77
2021/05/12 07:25:45;;;;;;;11.13;2.40;;;17.60;64.90;;;;;;5047305;28;20486;-76
2021/05/12 07:28:11;;;;;;;3.92;1.92;;;17.90;65.30;;;;;;5035415;28;20045;-77
2021/05/12 07:30:37;;;;;;;5.20;2.20;;;18.30;65.70;;;;;;5009889;28;20440;-78
2021/05/12 07:33:03;;;;;;;3.67;1.83;;;18.70;65.90;;;;;;5026894;28;20025;-77
2021/05/12 07:35:29;;;;;;;5.20;2.40;;;19.10;66.00;;;;;;5027322;28;20033;-77
2021/05/12 07:37:55;;;;;;;3.85;1.88;;;19.50;66.00;;;;;;5026888;28;20395;-78
2021/05/12 07:40:21;;;;;;;4.18;2.28;;;19.90;66.00;;;;;;5026384;28;20065;-77
2021/05/12 07:42:47;;;;;;;4.50;1.75;;;20.30;66.00;;;;;;5009190;28;20498;-78
2021/05/12 07:45:14;;;;;;;5.15;2.17;;;20.60;65.80;;;;;;5027460;28;20543;-78
2021/05/12 07:47:40;;;;;;;4.85;2.08;;;20.90;65.70;;;;;;5009269;28;20555;-78
2021/05/12 07:50:08;;;;;;;5.57;2.00;;;21.10;65.40;;;;;;5027334;28;20037;-78
2021/05/12 07:52:34;;;;;;;6.55;2.25;;;21.30;65.30;;;;;;5027276;28;20033;-78
2021/05/12 07:55:00;;;;;;;5.35;2.00;;;21.60;65.30;;;;;;5025554;28;20033;-77
2021/05/12 07:57:26;;;;;;;3.78;2.05;;;21.80;65.00;;;;;;5026662;28;20060;-77
2021/05/12 07:59:52;;;;;;;4.55;2.10;;;21.90;64.70;;;;;;5025467;28;20037;-79
2021/05/12 08:02:18;;;;;;;3.72;1.95;;;22.00;64.40;;;;;;5024678;28;20030;-78
2021/05/12 08:04:44;;;;;;;5.90;2.28;;;21.90;64.00;;;;;;5026224;28;20480;-77
2021/05/12 08:07:10;;;;;;;6.75;2.97;;;22.00;64.00;;;;;;5026322;28;20511;-78
2021/05/12 08:09:36;;;;;;;3.97;1.60;;;21.90;63.60;;;;;;5009098;28;20025;-78
2021/05/12 08:12:03;;;;;;;7.20;2.30;;;21.80;63.50;;;;;;5025057;28;20032;-78
2021/05/12 08:14:29;;;;;;;5.80;2.20;;;21.60;63.20;;;;;;5024818;28;20060;-77
2021/05/12 08:16:55;;;;;;;6.63;1.98;;;21.40;62.90;;;;;;5009099;28;20040;-78
2021/05/12 08:19:21;;;;;;;5.72;1.88;;;21.30;62.90;;;;;;5026762;28;20091;-76
2021/05/12 08:21:50;;;;;;;5.38;2.22;;;21.10;62.60;;;;;;5026841;28;20026;-77
2021/05/12 08:24:16;;;;;;;4.55;1.88;;;21.00;62.40;;;;;;5008614;28;20064;-77
2021/05/12 08:26:42;;;;;;;5.68;2.38;;;21.00;62.30;;;;;;5026547;28;20049;-79
2021/05/12 08:29:08;;;;;;;4.22;2.20;;;20.90;62.10;;;;;;5026742;28;20126;-77
2021/05/12 08:31:38;;;;;;;6.35;2.42;;;20.90;62.00;;;;;;5026205;28;20033;-77
2021/05/12 08:34:05;;;;;;;7.30;2.03;;;20.90;62.00;;;;;;5026471;28;20040;-77
2021/05/12 08:36:31;;;;;;;3.90;2.33;;;21.00;62.10;;;;;;5026052;28;20117;-77
2021/05/12 08:38:58;;;;;;;11.20;2.67;;;21.10;61.80;;;;;;5008297;28;20251;-77
2021/05/12 08:41:24;;;;;;;6.97;2.28;;;21.20;61.80;;;;;;5026574;28;20087;-77
2021/05/12 08:43:52;;;;;;;5.43;2.10;;;21.30;61.90;;;;;;5026108;28;20041;-77
2021/05/12 08:46:19;;;;;;;5.18;2.47;;;21.50;62.00;;;;;;5026675;28;20544;-78
2021/05/12 08:48:46;;;;;;;6.60;2.40;;;21.70;62.00;;;;;;5025842;28;20342;-77
2021/05/12 08:51:14;;;;;;;4.63;2.15;;;21.90;61.90;;;;;;5027075;28;20025;-77
2021/05/12 08:53:40;;;;;;;5.68;1.98;;;22.10;61.70;;;;;;5024978;28;20142;-77
2021/05/12 08:56:06;;;;;;;5.95;2.17;;;22.30;61.70;;;;;;5026058;28;20120;-77
2021/05/12 08:58:33;;;;;;;5.65;2.40;;;22.40;61.40;;;;;;5026076;28;20464;-77
2021/05/12 09:00:59;;;;;;;6.32;1.88;;;22.60;61.40;;;;;;5008992;28;20025;-77
2021/05/12 09:03:28;;;;;;;6.72;2.30;;;22.70;61.40;;;;;;4999720;28;20360;-77
2021/05/12 09:05:58;;;;;;;4.43;1.88;;;22.70;61.30;;;;;;5008654;28;20053;-78
2021/05/12 09:08:26;;;;;;;6.00;2.58;;;22.70;61.10;;;;;;5026266;28;20515;-77
2021/05/12 09:10:54;;;;;;;6.53;2.30;;;22.70;61.30;;;;;;4992268;28;20057;-77
2021/05/12 09:13:41;;;;;;;5.35;1.92;;;22.60;61.20;;;;;;5026312;28;20041;-78
2021/05/12 09:16:35;;;;;;;5.38;2.10;;;22.50;61.20;;;;;;5029645;28;20026;-78
2021/05/12 09:19:10;;;;;;;6.13;2.40;;;22.30;61.20;;;;;;5010627;28;20037;-79
2021/05/12 09:21:57;;;;;;;6.55;2.08;;;22.20;61.40;;;;;;5012090;28;20092;-79
2021/05/12 09:24:36;;;;;;;4.15;1.98;;;22.10;61.50;;;;;;5011890;28;20030;-79
2021/05/12 09:27:05;;;;;;;3.53;1.98;;;22.00;61.40;;;;;;5012049;28;20374;-79
2021/05/12 09:29:41;;;;;;;3.45;2.10;;;21.90;61.50;;;;;;5030399;28;20064;-77
2021/05/12 09:32:13;;;;;;;8.38;2.05;;;21.80;61.50;;;;;;5012502;28;20182;-78
2021/05/12 09:35:05;;;;;;;5.93;2.30;;;21.70;61.70;;;;;;5012630;28;20038;-78
2021/05/12 09:37:40;;;;;;;5.22;2.40;;;21.60;61.70;;;;;;5012731;28;20369;-78
2021/05/12 09:40:12;;;;;;;6.03;2.45;;;21.50;61.70;;;;;;5049592;28;20036;-77
2021/05/12 09:42:39;;;;;;;5.65;1.73;;;21.50;61.90;;;;;;5049500;28;20484;-78
2021/05/12 09:45:16;;;;;;;3.70;2.28;;;21.40;61.80;;;;;;5048662;28;20035;-76
2021/05/12 09:47:44;;;;;;;5.20;2.38;;;21.30;61.80;;;;;;5027998;28;20053;-78
2021/05/12 09:50:20;;;;;;;6.18;1.98;;;21.30;62.00;;;;;;5011408;28;20029;-77
2021/05/12 09:52:46;;;;;;;6.97;2.60;;;21.30;62.10;;;;;;5027905;28;20061;-78
2021/05/12 09:55:16;;;;;;;5.05;2.03;;;21.30;62.20;;;;;;5029369;28;20033;-79
2021/05/12 09:58:08;;;;;;;4.05;2.13;;;21.40;62.40;;;;;;5029216;28;20488;-78
2021/05/12 10:00:37;;;;;;;5.78;2.42;;;21.40;62.40;;;;;;5027928;28;20120;-79
2021/05/12 10:03:05;;;;;;;6.03;2.40;;;21.40;62.30;;;;;;5029018;28;20025;-79
2021/05/12 10:05:55;;;;;;;5.57;2.25;;;21.40;62.30;;;;;;5027761;28;20107;-78
2021/05/12 10:08:30;;;;;;;6.57;2.55;;;21.40;62.40;;;;;;5010948;28;20033;-79
2021/05/12 10:11:04;;;;;;;5.97;2.22;;;21.40;62.50;;;;;;5027698;28;20484;-78
2021/05/12 10:13:32;;;;;;;7.82;3.05;;;21.50;62.60;;;;;;5011050;28;20072;-79
2021/05/12 10:15:58;;;;;;;6.22;2.63;;;21.50;62.50;;;;;;5011623;28;20076;-83
2021/05/12 10:18:24;;;;;;;5.45;2.45;;;21.50;62.50;;;;;;5021440;28;20040;-78
2021/05/12 10:20:57;;;;;;;8.80;2.45;;;21.50;62.50;;;;;;5008732;28;20029;-78
2021/05/12 10:23:24;;;;;;;4.53;2.13;;;21.40;62.30;;;;;;5001016;28;20041;-78
2021/05/12 10:25:51;;;;;;;4.00;2.45;;;21.40;62.30;;;;;;5026327;28;20547;-78
2021/05/12 10:28:17;;;;;;;5.28;2.38;;;21.40;62.30;;;;;;5027058;28;20678;-79
2021/05/12 10:30:46;;;;;;;5.03;2.17;;;21.50;62.40;;;;;;5027517;28;20108;-77
2021/05/12 10:33:12;;;;;;;6.60;2.97;;;21.60;62.50;;;;;;5029353;28;20423;-77
2021/05/12 10:35:40;;;;;;;4.70;2.10;;;21.70;62.60;;;;;;5029389;28;20033;-79
2021/05/12 10:38:07;;;;;;;5.38;2.72;;;21.80;62.60;;;;;;5010620;28;20058;-78
2021/05/12 10:40:39;;;;;;;5.47;2.20;;;21.90;62.60;;;;;;5012380;28;20025;-77
2021/05/12 10:43:17;;;;;;;5.55;2.53;;;21.90;62.60;;;;;;5015978;28;20515;-77
2021/05/12 10:46:29;;;;;;;7.15;2.83;;;21.90;62.60;;;;;;5028496;28;20061;-77
2021/05/12 10:48:47;;;;;;;7.15;2.70;;;22.00;62.80;;;;;;5013684;28;20051;-77
2021/05/12 10:51:24;;;;;;;6.32;2.22;;;22.00;62.90;;;;;;5014828;28;20147;-78
2021/05/12 10:53:55;;;;;;;5.05;2.25;;;22.10;63.00;;;;;;5029929;28;20047;-79
2021/05/12 10:56:23;;;;;;;5.40;2.55;;;22.10;62.90;;;;;;5029861;28;20504;-78
2021/05/12 10:59:05;;;;;;;4.60;2.25;;;22.10;63.00;;;;;;5019334;28;20052;-78
2021/05/12 11:01:51;;;;;;;3.85;1.92;;;22.20;63.20;;;;;;5011448;28;20033;-78
2021/05/12 11:04:21;;;;;;;5.47;2.47;;;22.20;63.20;;;;;;5008248;28;20037;-79
2021/05/12 11:06:52;;;;;;;8.50;5.85;;;22.40;63.40;;;;;;5011552;28;20045;-78
2021/05/12 11:09:35;;;;;;;9.15;6.15;;;22.50;63.50;;;;;;5012062;28;20041;-79
2021/05/12 11:12:19;;;;;;;6.03;4.82;;;22.60;63.50;;;;;;5010588;28;20025;-79
2021/05/12 11:14:57;;;;;;;8.65;5.10;;;22.90;63.90;;;;;;4994104;28;20094;-79
2021/05/12 11:17:41;;;;;;;7.65;4.20;;;23.00;63.70;;;;;;5010515;28;20033;-78
2021/05/12 11:20:16;;;;;;;7.13;3.80;;;23.30;63.90;;;;;;4994151;28;20017;-79
2021/05/12 11:22:45;;;;;;;5.68;3.38;;;23.40;63.80;;;;;;5013350;28;20036;-79
2021/05/12 11:25:16;;;;;;;6.90;3.40;;;23.60;64.00;;;;;;5014790;28;20037;-79
2021/05/12 11:33:20;;;;;;;5.68;3.08;;;24.20;64.00;;;;;;5029181;28;20068;-80
2021/05/12 11:35:51;;;;;;;5.45;3.03;;;24.30;63.80;;;;;;5013014;28;20037;-83
2021/05/12 11:38:18;;;;;;;8.60;3.05;;;24.40;63.90;;;;;;5009912;28;20480;-78
2021/05/12 11:41:04;;;;;;;5.32;2.97;;;24.40;63.70;;;;;;5026845;28;20039;-78
2021/05/12 11:43:42;;;;;;;5.75;2.65;;;24.50;63.90;;;;;;5017253;28;20454;-80
2021/05/12 11:46:37;;;;;;;6.95;2.97;;;24.50;63.80;;;;;;5009130;28;20045;-80
2021/05/12 11:49:09;;;;;;;5.07;2.95;;;24.70;64.00;;;;;;5021044;28;20068;-79
2021/05/12 11:51:44;;;;;;;7.00;3.08;;;24.90;64.00;;;;;;5029383;28;20114;-79
2021/05/12 11:54:23;;;;;;;5.75;2.63;;;25.10;64.00;;;;;;5029238;28;20381;-79
2021/05/12 11:56:54;;;;;;;4.15;2.75;;;25.30;63.80;;;;;;5047381;28;20029;-79
2021/05/12 11:59:25;;;;;;;4.18;2.70;;;25.60;63.60;;;;;;5029661;28;20044;-79
2021/05/12 12:02:05;;;;;;;3.80;2.30;;;25.70;63.30;;;;;;5030634;28;20036;-78
2021/05/12 12:04:36;;;;;;;3.88;2.30;;;25.80;63.20;;;;;;5013481;28;20059;-78
2021/05/12 12:07:07;;;;;;;4.30;2.03;;;25.90;63.00;;;;;;5012924;28;20318;-77
2021/05/12 12:09:34;;;;;;;3.53;2.10;;;26.00;62.90;;;;;;5029700;28;20452;-79
2021/05/12 12:12:00;;;;;;;5.40;1.98;;;26.00;62.80;;;;;;5013431;28;20029;-79
2021/05/12 12:14:32;;;;;;;4.28;2.42;;;26.20;62.90;;;;;;5047971;28;20385;-78
2021/05/12 12:16:59;;;;;;;4.07;2.72;;;26.30;62.70;;;;;;5013864;28;20483;-78
2021/05/12 12:19:26;;;;;;;4.93;3.03;;;26.40;62.90;;;;;;5041679;28;20045;-80
2021/05/12 12:21:56;;;;;;;4.07;2.30;;;26.50;62.20;;;;;;5045679;28;20032;-78
2021/05/12 12:24:29;;;;;;;5.32;2.63;;;26.50;62.20;;;;;;5046797;28;20041;-78
2021/05/12 12:27:00;;;;;;;5.95;2.70;;;26.60;62.10;;;;;;5029199;28;20025;-77
2021/05/12 12:29:34;;;;;;;7.35;2.67;;;26.70;62.60;;;;;;5013513;28;20120;-77
2021/05/12 12:32:07;;;;;;;5.82;2.10;;;26.70;61.80;;;;;;5009364;28;20401;-77
2021/05/12 12:34:33;;;;;;;;;;;26.70;61.70;;;;;;5025733;28;20033;-78
2021/05/12 12:37:04;;;;;;;5.15;2.25;;;26.60;61.90;;;;;;5008382;28;20043;-77
2021/05/12 12:39:52;;;;;;;4.38;2.22;;;26.60;61.90;;;;;;5025128;28;20037;-77
2021/05/12 12:42:39;;;;;;;4.22;1.92;;;26.40;61.80;;;;;;5026001;28;20437;-78
2021/05/12 12:45:06;;;;;;;3.22;2.10;;;26.40;61.80;;;;;;5026825;28;20033;-78
2021/05/12 12:47:32;;;;;;;5.38;2.03;;;26.30;61.80;;;;;;5008848;28;20091;-78
2021/05/12 12:50:03;;;;;;;5.13;2.60;;;26.30;61.90;;;;;;5030086;28;20064;-78
2021/05/12 12:52:41;;;;;;;6.18;2.13;;;26.30;61.80;;;;;;5029601;28;20412;-77
2021/05/12 12:55:12;;;;;;;4.00;2.15;;;26.40;61.60;;;;;;5030511;28;20044;-78
2021/05/12 12:57:53;;;;;;;3.65;1.95;;;26.50;61.50;;;;;;5027998;28;20041;-77
2021/05/12 13:00:25;;;;;;;5.63;2.20;;;26.60;61.40;;;;;;5029883;28;20061;-78
2021/05/12 13:03:19;;;;;;;5.18;2.22;;;26.60;61.30;;;;;;5028824;28;20134;-77
2021/05/12 13:05:48;;;;;;;4.00;2.05;;;26.50;61.20;;;;;;5008719;28;20030;-77
2021/05/12 13:08:38;;;;;;;4.03;2.00;;;26.50;61.10;;;;;;5029399;28;20033;-78
2021/05/12 13:11:04;;;;;;;4.70;2.30;;;26.50;61.10;;;;;;5024473;28;20148;-78